Time;durP1;ratioP1;P1;durP2;ratioP2;P2;SDS_P1;SDS_P2;PMS_P1;PMS_P2;Temp;Humidity;BMP_temperature;BMP_pressure;BME280_temperature;BME280_humidity;BME280_pressure;Samples;Min_cycle;Max_cycle;Signal;HPM_P1;HPM_P2
2022/04/21 00:02:25;;;;;;;22.65;15.98;;;;;;;5.73;81.64;99839.02;2218402;77;21055;-79
2022/04/21 00:05:26;;;;;;;26.15;17.40;;;;;;;5.76;81.67;99835.27;2214472;79;21040;-79
2022/04/21 00:08:33;;;;;;;23.57;17.05;;;;;;;5.75;81.66;99831.81;2221948;79;20978;-78
2022/04/21 00:11:36;;;;;;;26.10;17.73;;;;;;;5.70;81.53;99828.77;2211354;77;21027;-78
2022/04/21 00:14:38;;;;;;;22.67;15.15;;;;;;;5.70;81.69;99831.41;2223139;79;20956;-77
2022/04/21 00:17:42;;;;;;;24.90;17.23;;;;;;;5.72;81.78;99828.16;2222287;77;21071;-78
2022/04/21 00:20:46;;;;;;;23.67;15.93;;;;;;;5.72;81.79;99832.10;2215090;79;21514;-78
2022/04/21 00:23:51;;;;;;;23.83;16.52;;;;;;;5.77;81.96;99823.75;2214597;79;21590;-78
2022/04/21 00:26:56;;;;;;;26.30;17.23;;;;;;;5.80;81.89;99813.79;2222465;78;21329;-78
2022/04/21 00:30:00;;;;;;;25.32;17.82;;;;;;;5.80;81.81;99819.05;2218552;79;21063;-78
2022/04/21 00:33:04;;;;;;;24.92;15.98;;;;;;;5.79;81.78;99822.64;2208085;79;21028;-78
2022/04/21 00:36:08;;;;;;;22.27;14.85;;;;;;;5.79;81.78;99826.59;2222059;78;21004;-78
2022/04/21 00:39:14;;;;;;;25.32;16.48;;;;;;;5.75;81.66;99821.78;2213725;79;20988;-78
2022/04/21 00:42:15;;;;;;;26.45;15.93;;;;;;;5.77;81.88;99820.66;2211584;78;21052;-79
2022/04/21 00:45:17;;;;;;;22.58;16.50;;;;;;;5.85;81.93;99821.23;2205977;79;21067;-78
2022/04/21 00:48:21;;;;;;;26.75;15.53;;;;;;;5.89;81.84;99811.27;2196028;79;20953;-80
2022/04/21 00:51:27;;;;;;;25.75;16.02;;;;;;;5.93;81.82;99815.27;2211627;79;20969;-78
2022/04/21 00:54:34;;;;;;;21.07;14.58;;;;;;;5.94;81.70;99809.90;2199909;79;21103;-78
2022/04/21 00:57:38;;;;;;;25.32;15.95;;;;;;;5.99;81.74;99817.34;2209400;79;21574;-80
2022/04/21 01:00:42;;;;;;;26.97;15.80;;;;;;;5.98;81.56;99822.28;2211168;79;21029;-78
2022/04/21 01:03:44;;;;;;;26.95;16.10;;;;;;;5.94;81.41;99822.21;2209010;79;20981;-78
2022/04/21 01:06:54;;;;;;;22.70;16.37;;;;;;;5.85;81.35;99819.43;2210561;79;21075;-78
2022/04/21 01:09:58;;;;;;;21.57;16.17;;;;;;;5.76;81.42;99816.35;2209958;79;21043;-78
2022/04/21 01:13:04;;;;;;;24.40;16.57;;;;;;;5.77;81.63;99810.59;2209648;79;21679;-78
2022/04/21 01:16:08;;;;;;;24.63;16.52;;;;;;;5.79;81.66;99810.80;2207323;79;21013;-78
2022/04/21 01:19:14;;;;;;;23.92;16.50;;;;;;;5.83;81.75;99812.19;2210287;79;21004;-78
2022/04/21 01:22:17;;;;;;;24.47;16.65;;;;;;;5.88;81.71;99809.59;2215065;79;21131;-78
2022/04/21 01:25:21;;;;;;;30.82;16.90;;;;;;;5.92;81.72;99803.08;2203681;79;20918;-78
2022/04/21 01:28:27;;;;;;;24.20;17.20;;;;;;;5.91;81.58;99806.67;2200736;79;21087;-79
2022/04/21 01:31:30;;;;;;;23.77;17.57;;;;;;;5.91;81.56;99807.98;2206131;78;21042;-78
2022/04/21 01:34:33;;;;;;;25.77;16.85;;;;;;;5.89;81.51;99802.05;2211493;79;20962;-79
2022/04/21 01:41:11;;;;;;;25.50;18.05;;;;;;;5.89;81.64;99804.69;2188904;79;21054;-78
2022/04/21 01:44:16;;;;;;;26.00;17.48;;;;;;;5.87;81.49;99794.78;2216676;79;21081;-78
2022/04/21 01:47:21;;;;;;;25.85;17.30;;;;;;;5.82;81.55;99789.44;2211355;78;20982;-78
2022/04/21 01:50:25;;;;;;;28.02;18.25;;;;;;;5.73;81.57;99789.00;2216288;79;21022;-78
2022/04/21 01:53:31;;;;;;;28.02;19.60;;;;;;;5.68;81.65;99787.27;2207041;79;21026;-78
2022/04/21 01:56:33;;;;;;;27.90;18.87;;;;;;;5.67;81.79;99787.44;2208964;79;20949;-79
2022/04/21 01:59:38;;;;;;;30.08;19.98;;;;;;;5.64;81.89;99798.25;2215265;79;21655;-77
2022/04/21 02:02:41;;;;;;;29.57;19.98;;;;;;;5.64;81.96;99792.98;2192827;78;20999;-79
2022/04/21 02:05:43;;;;;;;33.15;21.15;;;;;;;5.67;82.06;99794.84;2205226;79;20962;-78
2022/04/21 02:08:49;;;;;;;28.60;20.40;;;;;;;5.66;82.03;99801.09;2212198;79;20981;-78
2022/04/21 02:11:52;;;;;;;27.22;19.77;;;;;;;5.66;82.13;99797.14;2200824;79;20985;-80
2022/04/21 02:14:54;;;;;;;32.95;20.92;;;;;;;5.72;82.31;99802.32;2209633;78;21047;-78
2022/04/21 02:18:01;;;;;;;32.03;21.80;;;;;;;5.75;82.24;99808.12;2209621;79;21098;-78
2022/04/21 02:21:07;;;;;;;32.85;22.58;;;;;;;5.82;82.33;99811.00;2213159;79;21019;-78
2022/04/21 02:24:13;;;;;;;29.90;20.92;;;;;;;5.87;82.30;99802.68;2193723;79;21031;-78
2022/04/21 02:27:21;;;;;;;31.97;22.35;;;;;;;5.87;82.14;99805.31;2214227;78;21053;-78
2022/04/21 02:30:25;;;;;;;34.95;22.85;;;;;;;5.89;82.18;99796.79;2210447;79;21562;-78
2022/04/21 02:33:28;;;;;;;32.53;23.00;;;;;;;5.92;82.24;99797.81;2195032;79;21065;-79
2022/04/21 02:36:30;;;;;;;35.92;23.27;;;;;;;5.92;82.16;99803.08;2205110;79;21016;-78
2022/04/21 02:39:32;;;;;;;35.23;22.07;;;;;;;5.92;82.15;99794.69;2218100;79;21030;-78
2022/04/21 02:42:39;;;;;;;41.85;24.92;;;;;;;5.90;82.12;99791.86;2206459;79;21472;-78
2022/04/21 02:45:42;;;;;;;35.88;23.47;;;;;;;5.86;82.12;99788.69;2208076;79;21045;-79
2022/04/21 02:48:44;;;;;;;38.50;23.32;;;;;;;5.79;82.20;99801.58;2210881;79;21481;-78
2022/04/21 02:51:52;;;;;;;41.37;25.02;;;;;;;5.81;82.40;99797.01;2177672;79;21043;-79
2022/04/21 02:58:14;;;;;;;43.38;24.80;;;;;;;5.88;82.37;99801.69;2206815;79;21652;-78
2022/04/21 03:01:16;;;;;;;36.73;23.45;;;;;;;5.92;82.49;99796.50;2207953;79;20995;-78
2022/04/21 03:04:20;;;;;;;38.08;23.18;;;;;;;5.96;82.50;99797.89;2211317;79;20990;-78
2022/04/21 03:07:22;;;;;;;41.25;23.45;;;;;;;6.00;82.44;99804.54;2203873;79;21082;-78
2022/04/21 03:10:28;;;;;;;45.15;23.75;;;;;;;6.06;82.55;99809.22;2205984;79;21011;-78
2022/04/21 03:13:34;;;;;;;41.42;22.73;;;;;;;6.10;82.44;99809.26;2208862;79;21617;-78
2022/04/21 03:16:36;;;;;;;42.15;22.80;;;;;;;6.09;82.37;99819.95;2212194;79;20952;-78
2022/04/21 03:19:43;;;;;;;41.68;21.48;;;;;;;6.04;82.32;99817.75;2204818;79;20975;-80
2022/04/21 03:26:06;;;;;;;42.48;22.85;;;;;;;6.02;82.54;99815.25;2204676;79;20988;-78
2022/04/21 03:29:16;;;;;;;41.40;23.18;;;;;;;6.01;82.48;99820.18;2211213;79;21071;-78
2022/04/21 03:32:20;;;;;;;46.48;24.57;;;;;;;6.05;82.63;99807.54;2203258;79;21029;-78
2022/04/21 03:35:25;;;;;;;48.00;24.07;;;;;;;6.05;82.53;99809.72;2205368;79;21034;-81
2022/04/21 03:38:27;;;;;;;44.20;23.77;;;;;;;6.08;82.76;99805.94;2211667;79;20990;-78
2022/04/21 03:41:30;;;;;;;46.25;23.98;;;;;;;6.15;82.72;99807.02;2216453;79;21035;-80
2022/04/21 03:44:33;;;;;;;48.08;24.30;;;;;;;6.16;82.68;99803.89;2205528;78;21498;-79
2022/04/21 03:47:39;;;;;;;47.23;24.32;;;;;;;6.15;82.68;99801.75;2215288;79;21004;-78
2022/04/21 03:50:43;;;;;;;47.38;23.65;;;;;;;6.22;82.79;99805.48;2209611;78;21025;-78
2022/04/21 03:53:47;;;;;;;56.00;25.23;;;;;;;6.25;82.59;99804.33;2203846;79;20943;-78
2022/04/21 03:56:51;;;;;;;54.25;25.40;;;;;;;6.26;82.64;99798.92;2215493;78;21001;-78
2022/04/21 03:59:53;;;;;;;51.92;24.87;;;;;;;6.25;82.59;99805.19;2207612;78;21065;-78
2022/04/21 04:02:59;;;;;;;54.95;25.00;;;;;;;6.29;82.63;99805.22;2206199;79;20960;-78
2022/04/21 04:06:02;;;;;;;49.55;24.98;;;;;;;6.32;82.60;99807.23;2210268;78;21034;-78
2022/04/21 04:12:23;;;;;;;49.00;25.30;;;;;;;6.40;82.63;99803.37;2216051;78;21014;-78
2022/04/21 04:15:28;;;;;;;45.87;25.67;;;;;;;6.46;82.60;99810.68;2177917;79;21095;-77
2022/04/21 04:18:34;;;;;;;41.65;25.02;;;;;;;6.52;82.55;99806.12;2209624;78;21039;-80
2022/04/21 04:21:35;;;;;;;48.87;24.80;;;;;;;6.59;82.49;99808.53;2207844;79;20984;-77
2022/04/21 04:24:36;;;;;;;47.62;23.65;;;;;;;6.57;82.20;99814.92;2215730;79;21056;-75
2022/04/21 04:27:43;;;;;;;40.45;24.85;;;;;;;6.49;82.03;99811.70;2211260;79;21067;-76
2022/04/21 04:30:44;;;;;;;55.33;28.05;;;;;;;6.43;82.00;99814.44;2212888;79;21469;-77
2022/04/21 04:33:50;;;;;;;68.47;37.30;;;;;;;6.40;82.08;99820.01;2204459;79;21158;-78
2022/04/21 04:36:55;;;;;;;71.85;39.70;;;;;;;6.41;82.08;99816.88;2208190;79;20999;-77
2022/04/21 04:40:00;;;;;;;53.87;28.92;;;;;;;6.37;82.05;99820.80;2210087;78;21083;-77
2022/04/21 04:43:04;;;;;;;43.35;25.10;;;;;;;6.28;82.04;99815.42;2211160;78;21043;-76
2022/04/21 04:49:29;;;;;;;51.10;29.05;;;;;;;5.91;82.04;99816.70;2196935;78;21055;-80
2022/04/21 04:52:37;;;;;;;46.33;28.32;;;;;;;5.83;82.33;99816.63;2211816;79;21733;-78
2022/04/21 04:55:42;;;;;;;48.38;29.65;;;;;;;5.81;82.49;99825.15;2211263;79;21016;-76
2022/04/21 04:58:47;;;;;;;51.68;29.48;;;;;;;5.81;82.66;99822.02;2200788;79;21047;-78
2022/04/21 05:01:49;;;;;;;57.85;30.32;;;;;;;5.77;82.59;99821.98;2201808;79;20984;-75
2022/04/21 05:04:52;;;;;;;61.15;30.48;;;;;;;5.71;82.70;99819.89;2208007;78;20985;-77
2022/04/21 05:07:56;;;;;;;56.50;31.05;;;;;;;5.69;82.89;99812.64;2196346;78;21388;-78
2022/04/21 05:11:03;;;;;;;61.02;31.02;;;;;;;5.65;83.06;99821.78;2209782;78;20991;-75
2022/04/21 05:14:10;;;;;;;57.95;30.25;;;;;;;5.68;83.31;99822.81;2203798;79;21000;-76
2022/04/21 05:17:13;;;;;;;61.40;30.80;;;;;;;5.71;83.32;99823.02;2211505;79;21290;-77
2022/04/21 05:20:18;;;;;;;62.93;32.58;;;;;;;5.70;83.37;99824.83;2210452;79;20980;-77
2022/04/21 05:23:21;;;;;;;53.78;29.92;;;;;;;5.68;83.44;99824.13;2213902;79;21885;-77
2022/04/21 05:26:25;;;;;;;65.15;34.33;;;;;;;5.65;83.54;99823.59;2208967;79;20985;-78
2022/04/21 05:32:52;;;;;;;57.73;30.08;;;;;;;5.71;83.82;99825.16;2211437;79;21055;-76
2022/04/21 05:35:59;;;;;;;59.08;31.85;;;;;;;5.73;83.77;99817.95;2213865;78;21129;-76
2022/04/21 05:39:03;;;;;;;55.17;30.08;;;;;;;5.79;83.85;99820.50;2211630;79;21103;-76
2022/04/21 05:42:10;;;;;;;54.60;31.42;;;;;;;5.78;83.74;99820.99;2206673;78;21081;-76
2022/04/21 05:45:14;;;;;;;49.30;28.85;;;;;;;5.84;83.84;99820.91;2205790;79;21002;-76
2022/04/21 05:48:19;;;;;;;53.73;29.77;;;;;;;5.88;83.67;99824.91;2209780;79;20981;-76
2022/04/21 05:51:23;;;;;;;47.60;27.75;;;;;;;5.87;83.60;99829.01;2205208;79;21005;-76
2022/04/21 05:54:30;;;;;;;44.95;26.35;;;;;;;5.97;83.79;99825.87;2206160;79;21004;-76
2022/04/21 05:57:38;;;;;;;48.70;27.52;;;;;;;6.01;83.61;99827.26;2204237;79;21068;-77
2022/04/21 06:00:40;;;;;;;50.43;27.87;;;;;;;6.06;83.58;99821.90;2201339;79;21020;-76
2022/04/21 06:03:41;;;;;;;42.17;26.07;;;;;;;6.14;83.53;99821.19;2210205;79;20932;-74
2022/04/21 06:06:45;;;;;;;52.08;26.30;;;;;;;6.20;83.43;99821.09;2199444;79;21271;-78
2022/04/21 06:09:48;;;;;;;54.42;27.20;;;;;;;6.28;83.25;99825.97;2214886;79;20953;-76
2022/04/21 06:12:53;;;;;;;44.67;25.80;;;;;;;6.27;82.96;99828.23;2202504;79;21086;-74
2022/04/21 06:15:57;;;;;;;47.98;27.13;;;;;;;6.34;83.08;99827.69;2197321;79;20969;-76
2022/04/21 06:19:08;;;;;;;43.25;25.75;;;;;;;6.44;83.15;99834.53;2214972;79;21429;-76
2022/04/21 06:22:11;;;;;;;46.55;27.00;;;;;;;6.53;82.92;99838.59;2208543;79;21008;-76
2022/04/21 06:25:14;;;;;;;48.78;26.17;;;;;;;6.56;82.76;99835.66;2203555;79;21966;-72
2022/04/21 06:28:18;;;;;;;46.23;24.77;;;;;;;6.60;82.67;99838.35;2210641;79;21032;-75
2022/04/21 06:31:20;;;;;;;44.53;25.72;;;;;;;6.60;82.39;99845.77;2207043;78;21044;-76
2022/04/21 06:34:26;;;;;;;40.78;23.02;;;;;;;6.62;82.35;99846.95;2203355;79;21027;-76
2022/04/21 06:37:28;;;;;;;39.63;24.05;;;;;;;6.62;82.09;99854.86;2212094;79;21001;-76
2022/04/21 06:40:29;;;;;;;46.77;23.45;;;;;;;6.58;82.29;99858.26;2207372;78;21134;-77
2022/04/21 06:50:13;;;;;;;30.08;19.35;;;;;;;6.77;82.02;99856.00;2203956;79;21118;-77
2022/04/21 06:53:18;;;;;;;25.88;16.70;;;;;;;6.85;81.94;99856.09;2211079;79;21017;-77
2022/04/21 06:56:19;;;;;;;24.57;14.75;;;;;;;6.92;81.93;99859.77;2211371;78;20996;-77
2022/04/21 06:59:23;;;;;;;25.27;15.98;;;;;;;7.04;81.93;99867.47;2209430;78;20995;-77
2022/04/21 07:02:31;;;;;;;26.70;18.10;;;;;;;7.11;81.64;99863.27;2217163;79;21352;-76
2022/04/21 07:05:39;;;;;;;30.62;18.62;;;;;;;7.19;81.70;99869.45;2219641;78;21083;-76
2022/04/21 07:08:41;;;;;;;32.58;19.52;;;;;;;7.29;81.44;99868.06;2207955;78;21009;-76
2022/04/21 07:11:44;;;;;;;29.57;17.82;;;;;;;7.35;81.27;99868.77;2211994;78;21051;-75
2022/04/21 07:14:46;;;;;;;26.85;16.93;;;;;;;7.44;81.08;99865.70;2212136;78;21020;-76
2022/04/21 07:17:50;;;;;;;27.73;18.37;;;;;;;7.53;81.00;99867.42;2204988;79;20988;-75
2022/04/21 07:20:54;;;;;;;31.48;19.77;;;;;;;7.60;80.74;99864.98;2212351;78;20953;-75
2022/04/21 07:23:56;;;;;;;30.65;19.77;;;;;;;7.69;80.48;99867.22;2210652;79;21098;-75
2022/04/21 07:26:57;;;;;;;27.80;18.00;;;;;;;7.74;80.27;99870.20;2210530;78;21078;-75
2022/04/21 07:30:02;;;;;;;26.50;16.90;;;;;;;7.83;79.91;99873.27;2205137;78;21071;-75
2022/04/21 07:33:02;;;;;;;31.65;18.77;;;;;;;7.88;79.75;99878.06;2208840;79;21002;-75
2022/04/21 07:36:05;;;;;;;27.90;19.40;;;;;;;7.96;79.62;99884.23;2209421;78;20969;-75
2022/04/21 07:39:08;;;;;;;29.45;19.35;;;;;;;8.03;79.73;99881.31;2209378;79;21000;-75
2022/04/21 07:42:16;;;;;;;31.05;20.62;;;;;;;8.09;79.60;99879.86;2203275;79;21043;-75
2022/04/21 07:45:19;;;;;;;33.98;20.68;;;;;;;8.03;79.12;99886.59;2211537;78;21349;-75
2022/04/21 07:48:21;;;;;;;30.43;19.57;;;;;;;8.04;79.22;99886.92;2202867;78;21030;-75
2022/04/21 07:51:24;;;;;;;31.52;20.60;;;;;;;8.05;79.07;99881.99;2212476;79;20931;-75
2022/04/21 07:54:33;;;;;;;27.27;18.73;;;;;;;8.14;79.01;99879.37;2211914;79;21038;-75
2022/04/21 07:57:37;;;;;;;29.48;19.37;;;;;;;8.23;78.90;99876.63;2199660;78;21061;-75
2022/04/21 08:00:38;;;;;;;27.35;19.67;;;;;;;8.31;78.69;99873.20;2208665;79;21047;-75
2022/04/21 08:03:43;;;;;;;26.33;18.35;;;;;;;8.42;78.70;99875.60;2212095;78;21019;-75
2022/04/21 08:06:46;;;;;;;28.17;18.10;;;;;;;8.58;78.72;99872.67;2211385;79;21096;-75
2022/04/21 08:09:47;;;;;;;26.45;17.50;;;;;;;8.66;78.23;99878.00;2213318;79;21541;-72
2022/04/21 08:12:51;;;;;;;22.45;17.17;;;;;;;8.67;78.02;99882.28;2212029;78;21597;-76
2022/04/21 08:15:53;;;;;;;24.32;17.10;;;;;;;8.71;77.94;99888.93;2212880;79;20933;-74
2022/04/21 08:18:54;;;;;;;26.10;17.35;;;;;;;8.68;77.26;99894.05;2201002;78;21494;-75
2022/04/21 08:21:56;;;;;;;23.60;16.52;;;;;;;8.65;77.61;99887.75;2207589;79;21794;-76
2022/04/21 08:34:40;;;;;;;23.20;15.68;;;;;;;8.70;76.92;99888.58;2197538;79;21040;-77
2022/04/21 08:37:44;;;;;;;20.10;13.95;;;;;;;8.73;76.87;99902.34;2210170;78;21318;-77
2022/04/21 08:40:52;;;;;;;22.55;15.72;;;;;;;8.70;76.38;99913.70;2209846;78;20934;-77
2022/04/21 08:43:56;;;;;;;24.37;15.28;;;;;;;8.61;76.48;99910.20;2209141;78;21811;-77
2022/04/21 08:47:20;;;;;;;25.95;17.62;;;;;;;8.66;76.39;99907.09;2097768;82;21140;-75
2022/04/21 08:50:21;;;;;;;24.37;16.50;;;;;;;8.69;76.30;99905.45;2097914;82;21054;-80
2022/04/21 08:53:24;;;;;;;24.47;18.50;;;;;;;8.68;76.31;99901.16;2096147;82;21058;-80
2022/04/21 08:56:26;;;;;;;31.70;22.32;;;;;;;8.70;76.11;99905.77;2096688;82;21040;-78
2022/04/21 08:59:27;;;;;;;33.65;22.82;;;;;;;8.70;76.28;99912.39;2077218;83;21022;-79
2022/04/21 09:02:42;;;;;;;29.42;21.55;;;;;;;8.73;76.22;99912.09;2098379;83;20989;-77
2022/04/21 09:05:44;;;;;;;29.10;21.10;;;;;;;8.77;76.21;99914.73;2101675;82;20959;-77
2022/04/21 09:08:47;;;;;;;34.67;23.05;;;;;;;8.74;75.90;99915.88;2092840;83;20985;-78
2022/04/21 09:11:54;;;;;;;30.55;23.18;;;;;;;8.73;75.86;99920.85;2164457;78;21528;-77
2022/04/21 09:14:57;;;;;;;33.42;24.37;;;;;;;8.65;75.48;99914.20;2213648;79;21046;-78
2022/04/21 09:18:10;;;;;;;33.70;22.32;;;;;;;8.57;75.54;99917.31;2206044;79;21058;-77
2022/04/21 09:21:14;;;;;;;31.05;22.60;;;;;;;8.56;75.53;99923.56;2174225;80;20939;-78
2022/04/21 09:24:24;;;;;;;35.05;23.25;;;;;;;8.52;75.25;99921.24;2199491;79;21083;-77
2022/04/21 09:27:44;;;;;;;33.28;22.82;;;;;;;8.41;75.36;99923.34;2213941;79;21063;-77
2022/04/21 09:30:46;;;;;;;31.95;22.55;;;;;;;8.44;75.64;99929.13;2186732;79;20991;-79
2022/04/21 09:33:47;;;;;;;34.18;22.90;;;;;;;8.52;75.47;99926.53;2191540;79;21033;-80
2022/04/21 09:36:48;;;;;;;34.38;23.50;;;;;;;8.55;75.51;99933.82;2211005;79;22371;-79
2022/04/21 09:39:51;;;;;;;31.85;22.32;;;;;;;8.57;75.42;99926.07;2205962;79;21581;-78
2022/04/21 09:43:02;;;;;;;34.35;21.40;;;;;;;8.45;75.01;99932.13;2256162;77;21883;-77
2022/04/21 09:46:19;;;;;;;32.73;22.50;;;;;;;8.41;75.37;99933.41;2255059;77;21439;-77
2022/04/21 09:49:41;;;;;;;36.50;23.00;;;;;;;8.41;75.38;99933.41;2258312;77;21649;-78
2022/04/21 09:52:49;;;;;;;30.43;22.27;;;;;;;8.48;75.53;99928.34;2260414;77;21002;-80
2022/04/21 09:55:53;;;;;;;31.95;24.02;;;;;;;8.62;75.60;99922.96;2263645;77;20915;-79
2022/04/21 09:58:55;;;;;;;33.80;24.23;;;;;;;8.74;75.45;99921.67;2266622;77;21029;-80
2022/04/21 10:01:57;;;;;;;33.53;24.02;;;;;;;8.84;75.35;99926.36;2253675;77;20950;-80
2022/04/21 10:04:59;;;;;;;31.80;22.05;;;;;;;8.96;75.42;99925.06;2212905;79;20961;-80
2022/04/21 10:08:02;;;;;;;36.30;24.10;;;;;;;9.10;75.21;99926.26;2214302;79;21007;-78
2022/04/21 10:11:07;;;;;;;35.90;25.20;;;;;;;9.22;75.11;99920.66;2148337;80;21094;-78
2022/04/21 10:14:15;;;;;;;34.20;24.98;;;;;;;9.27;74.80;99918.35;2173999;80;21006;-78
2022/04/21 10:17:16;;;;;;;37.10;24.75;;;;;;;9.31;74.87;99923.14;2170347;80;20971;-79
2022/04/21 10:20:24;;;;;;;34.08;24.87;;;;;;;9.35;74.76;99915.22;2213108;79;20960;-79
2022/04/21 10:23:29;;;;;;;33.10;23.52;;;;;;;9.40;74.53;99918.21;2213929;79;20983;-76
2022/04/21 10:26:40;;;;;;;33.53;23.55;;;;;;;9.42;74.00;99919.35;2218056;78;20963;-78
2022/04/21 10:29:52;;;;;;;31.97;23.55;;;;;;;9.31;73.64;99920.49;2204631;79;20979;-79
2022/04/21 10:33:01;;;;;;;35.20;24.72;;;;;;;9.33;74.00;99919.84;2217513;79;20974;-77
2022/04/21 10:36:02;;;;;;;33.58;22.77;;;;;;;9.29;73.83;99915.88;2212160;79;20948;-79
2022/04/21 10:39:25;;;;;;;27.95;20.65;;;;;;;9.31;73.60;99916.52;2212170;79;21532;-79
2022/04/21 10:42:26;;;;;;;27.25;20.95;;;;;;;9.36;73.55;99913.39;2257094;77;20992;-78
2022/04/21 10:45:31;;;;;;;26.85;20.68;;;;;;;9.48;73.64;99905.45;2213432;79;21029;-77
2022/04/21 10:48:43;;;;;;;27.80;20.95;;;;;;;9.71;73.82;99904.28;2218458;79;21003;-77
2022/04/21 10:58:42;;;;;;;29.42;21.97;;;;;;;10.27;72.36;99894.62;2265542;77;21002;-77
2022/04/21 11:01:53;;;;;;;41.77;28.30;;;;;;;10.28;72.35;99889.66;2262811;77;21002;-79
2022/04/21 11:04:57;;;;;;;27.80;22.40;;;;;;;10.21;71.96;99888.64;2267221;77;21623;-78
2022/04/21 11:08:01;;;;;;;30.35;21.65;;;;;;;10.25;72.41;99896.61;2264224;77;21064;-78
2022/04/21 11:11:04;;;;;;;26.02;19.73;;;;;;;10.36;72.05;99889.30;2266306;77;21008;-78
2022/04/21 11:14:07;;;;;;;23.38;17.67;;;;;;;10.41;71.56;99895.73;2266214;77;20954;-79
2022/04/21 11:17:09;;;;;;;24.37;17.42;;;;;;;10.29;71.09;99895.28;2227353;78;21032;-81
2022/04/21 11:20:26;;;;;;;23.73;17.90;;;;;;;10.24;70.59;99893.61;2182808;80;20976;-79
2022/04/21 11:23:38;;;;;;;23.32;17.42;;;;;;;10.26;71.28;99893.45;2218803;78;21004;-79
2022/04/21 11:26:41;;;;;;;25.65;19.02;;;;;;;10.58;71.54;99895.18;2268614;77;21005;-80
2022/04/21 11:29:42;;;;;;;21.82;17.40;;;;;;;10.63;70.67;99897.33;2242530;77;20960;-79
2022/04/21 11:32:53;;;;;;;18.17;14.63;;;;;;;10.69;70.55;99897.45;2259574;77;21001;-80
2022/04/21 11:36:11;;;;;;;;;;;;;;;10.66;70.19;99884.53;2225949;79;21001;-79
2022/04/21 11:39:15;;;;;;;22.93;16.17;;;;;;;10.55;69.99;99887.06;2262552;77;20125;-80
2022/04/21 11:42:27;;;;;;;22.75;16.50;;;;;;;10.66;70.17;99884.53;2223643;79;20989;-80
2022/04/21 11:45:34;;;;;;;21.12;16.95;;;;;;;10.79;70.00;99881.84;2193577;79;21030;-79
2022/04/21 11:48:39;;;;;;;22.02;16.02;;;;;;;10.78;69.86;99855.78;2178375;80;21010;-80
2022/04/21 11:51:42;;;;;;;22.00;15.38;;;;;;;10.96;69.00;99869.63;2221969;79;21548;-79
2022/04/21 11:55:00;;;;;;;16.35;13.90;;;;;;;11.05;69.22;99873.05;2227653;79;20986;-82
2022/04/21 11:58:01;;;;;;;19.00;15.78;;;;;;;11.12;68.71;99874.48;2223985;79;21024;-82
2022/04/21 12:07:53;;;;;;;23.32;17.25;;;;;;;11.73;68.20;99864.72;2213198;79;20148;-80
2022/04/21 12:10:54;;;;;;;21.70;17.70;;;;;;;11.80;68.27;99866.17;2206921;79;20983;-79
2022/04/21 12:13:56;;;;;;;22.17;17.10;;;;;;;11.83;68.08;99861.30;2219326;79;20983;-81
2022/04/21 12:17:06;;;;;;;21.82;18.50;;;;;;;11.87;68.01;99859.95;2218802;79;20971;-79
2022/04/21 12:20:08;;;;;;;22.20;17.87;;;;;;;12.01;67.84;99858.83;2180166;80;21059;-81
2022/04/21 12:23:10;;;;;;;21.02;16.55;;;;;;;12.13;67.10;99861.35;2191563;80;21486;-80
2022/04/21 12:26:11;;;;;;;20.68;14.83;;;;;;;12.16;67.29;99860.16;2158656;79;20992;-81
2022/04/21 12:29:12;;;;;;;21.37;15.28;;;;;;;12.23;66.85;99863.75;2248302;77;21417;-80
2022/04/21 12:32:22;;;;;;;18.25;14.93;;;;;;;12.30;66.38;99862.84;2219740;79;21028;-81
2022/04/21 12:35:49;;;;;;;18.30;15.10;;;;;;;12.39;66.14;99860.91;2185405;79;21497;-81
2022/04/21 12:39:01;;;;;;;18.57;14.85;;;;;;;12.54;66.13;99857.72;2195305;80;21538;-81
2022/04/21 12:42:03;;;;;;;17.15;14.20;;;;;;;12.53;65.73;99860.06;2191734;80;21004;-81
2022/04/21 12:45:06;;;;;;;19.55;14.50;;;;;;;12.59;65.91;99863.82;2220334;79;20946;-81
2022/04/21 12:48:28;;;;;;;18.12;14.07;;;;;;;12.59;63.13;99860.34;2216474;79;21083;-81
2022/04/21 12:51:29;;;;;;;16.62;13.50;;;;;;;12.51;64.32;99861.26;2261771;77;21446;-80
2022/04/21 12:54:30;;;;;;;15.58;13.68;;;;;;;12.55;64.83;99847.89;2218241;79;20917;-80
2022/04/21 12:57:32;;;;;;;16.02;13.10;;;;;;;12.67;64.56;99864.20;2220811;78;20984;-79
2022/04/21 13:00:36;;;;;;;17.67;14.60;;;;;;;12.71;64.06;99849.52;2212835;79;20990;-78
2022/04/21 13:03:40;;;;;;;16.70;14.07;;;;;;;12.54;63.54;99858.23;2215973;79;20997;-79
2022/04/21 13:06:43;;;;;;;16.97;13.13;;;;;;;12.35;63.81;99852.96;2226648;78;21016;-79
2022/04/21 13:09:44;;;;;;;13.75;12.30;;;;;;;12.34;63.82;99851.32;2219485;78;21028;-79
2022/04/21 13:12:46;;;;;;;17.48;14.78;;;;;;;12.32;62.31;99852.00;2129439;79;21028;-79
2022/04/21 13:15:48;;;;;;;18.12;14.87;;;;;;;12.15;63.57;99863.33;2224031;79;21041;-78
2022/04/21 13:18:49;;;;;;;19.32;15.93;;;;;;;12.04;63.60;99865.11;2265431;77;21455;-77
2022/04/21 13:21:55;;;;;;;22.62;17.62;;;;;;;11.76;62.56;99863.53;2225474;78;21102;-78
2022/04/21 13:24:56;;;;;;;23.57;17.20;;;;;;;11.45;63.44;99863.13;2213245;79;20979;-78
2022/04/21 13:27:58;;;;;;;23.07;16.80;;;;;;;11.44;64.05;99860.98;2262342;77;21518;-79
2022/04/21 13:34:19;;;;;;;21.20;16.55;;;;;;;11.25;64.39;99860.13;2264588;77;20993;-80
2022/04/21 13:37:20;;;;;;;20.75;16.48;;;;;;;11.20;64.16;99860.66;2217285;79;21741;-80
2022/04/21 13:40:23;;;;;;;22.67;17.80;;;;;;;11.21;64.31;99863.66;2218780;79;20961;-81
2022/04/21 13:43:26;;;;;;;23.25;18.05;;;;;;;11.10;64.55;99862.73;2261718;77;20958;-84
2022/04/21 13:46:28;;;;;;;22.62;17.65;;;;;;;11.10;64.63;99856.09;2264753;77;20991;-83
2022/04/21 13:49:30;;;;;;;23.65;19.27;;;;;;;11.20;64.75;99865.96;2207053;79;21096;-79
2022/04/21 13:52:31;;;;;;;22.15;18.42;;;;;;;11.26;64.97;99858.30;2211512;79;20967;-81
2022/04/21 13:55:34;;;;;;;24.07;19.17;;;;;;;11.36;64.85;99856.23;2258971;77;20983;-78
2022/04/21 13:58:35;;;;;;;26.37;20.32;;;;;;;11.42;64.72;99853.69;2172544;80;20978;-82
2022/04/21 14:01:38;;;;;;;26.87;19.95;;;;;;;11.45;64.74;99863.13;2149833;81;21045;-78
2022/04/21 14:04:39;;;;;;;32.48;22.55;;;;;;;11.42;64.80;99854.19;2187542;80;21492;-81
2022/04/21 14:07:40;;;;;;;25.92;19.95;;;;;;;11.49;65.20;99859.61;2183996;80;21001;-81
2022/04/21 14:10:44;;;;;;;27.05;21.87;;;;;;;11.50;64.88;99859.95;2184666;80;21484;-79
2022/04/21 14:13:46;;;;;;;30.57;21.57;;;;;;;11.50;65.06;99860.77;2191022;80;20984;-77
2022/04/21 14:16:47;;;;;;;27.75;19.85;;;;;;;11.59;65.29;99861.02;2154024;80;21042;-77
2022/04/21 14:19:48;;;;;;;27.90;20.80;;;;;;;11.60;65.12;99865.82;2213812;79;21000;-82
2022/04/21 14:22:50;;;;;;;27.80;21.35;;;;;;;11.56;64.93;99860.55;2261850;77;21003;-79
2022/04/21 14:25:52;;;;;;;27.75;20.45;;;;;;;11.49;64.75;99857.80;2262706;77;20938;-80
2022/04/21 14:28:53;;;;;;;25.52;20.50;;;;;;;11.39;64.62;99859.86;2257039;77;20960;-78
2022/04/21 14:31:55;;;;;;;29.87;21.60;;;;;;;11.30;64.92;99858.28;2200518;79;20947;-78
2022/04/21 14:34:56;;;;;;;29.50;21.65;;;;;;;11.26;65.01;99859.12;2197462;79;20997;-81
2022/04/21 14:44:37;;;;;;;30.10;22.30;;;;;;;10.90;65.53;99857.56;2197583;79;21524;-81
2022/04/21 14:47:39;;;;;;;30.08;21.05;;;;;;;10.76;65.70;99861.78;2199786;79;20993;-80
2022/04/21 14:50:40;;;;;;;25.72;18.62;;;;;;;10.68;66.05;99858.66;2189852;79;20945;-84
2022/04/21 14:53:46;;;;;;;28.12;20.82;;;;;;;10.64;66.17;99857.84;2190816;79;20931;-83
2022/04/21 14:56:44;;;;;;;28.52;20.12;;;;;;;10.55;66.53;99859.72;2203129;79;20990;-81
2022/04/21 14:59:45;;;;;;;22.62;17.30;;;;;;;10.30;66.66;99860.30;2208669;78;21029;-80
2022/04/21 15:02:46;;;;;;;21.80;16.17;;;;;;;10.13;67.27;99858.17;2207210;78;20965;-81
2022/04/21 15:05:47;;;;;;;24.52;16.10;;;;;;;10.00;67.33;99853.92;2172627;80;20975;-82
2022/04/21 15:08:48;;;;;;;29.25;20.30;;;;;;;9.93;67.71;99860.38;2183001;79;20995;-81
2022/04/21 15:11:50;;;;;;;40.63;25.82;;;;;;;9.86;67.93;99861.56;2199885;79;20978;-83
2022/04/21 15:14:52;;;;;;;28.90;20.40;;;;;;;9.88;68.30;99864.02;2211450;79;21417;-82
2022/04/21 15:17:53;;;;;;;28.00;18.67;;;;;;;9.90;68.41;99863.87;2209336;79;22059;-83